createdAt,value
2019-03-21T00:01:03.823Z,63.16
2019-03-21T00:04:14.366Z,62.80
2019-03-21T00:07:18.798Z,63.44
2019-03-21T00:10:33.979Z,63.23
2019-03-21T00:13:38.421Z,63.21
2019-03-21T00:16:42.856Z,62.96
2019-03-21T00:19:47.290Z,63.25
2019-03-21T00:22:58.634Z,63.37
2019-03-21T00:26:03.071Z,63.33
2019-03-21T00:29:07.903Z,64.30
2019-03-21T00:32:12.325Z,64.80
2019-03-21T00:35:17.761Z,65.38
2019-03-21T00:38:22.184Z,65.03
2019-03-21T00:41:26.909Z,64.95
2019-03-21T00:44:31.645Z,65.49
2019-03-21T00:47:36.083Z,65.61
2019-03-21T00:50:41.220Z,65.40
2019-03-21T00:53:45.650Z,66.14
2019-03-21T00:56:50.363Z,65.66
2019-03-21T00:59:54.800Z,65.26
2019-03-21T01:02:59.618Z,64.25
2019-03-21T01:06:04.461Z,63.20
2019-03-21T01:09:16.256Z,63.77
2019-03-21T01:12:20.688Z,64.29
2019-03-21T01:15:25.125Z,64.75
2019-03-21T01:18:29.625Z,65.65
2019-03-21T01:21:34.066Z,65.69
2019-03-21T01:24:38.774Z,65.52
2019-03-21T01:27:43.206Z,65.74
2019-03-21T01:30:47.934Z,65.18
2019-03-21T01:33:52.770Z,64.31
2019-03-21T01:36:57.211Z,64.80
2019-03-21T01:40:01.645Z,64.31
2019-03-21T01:43:06.083Z,64.44
2019-03-21T01:46:17.069Z,65.25
2019-03-21T01:49:21.502Z,64.49
2019-03-21T01:52:25.933Z,64.73
2019-03-21T01:55:30.361Z,64.81
2019-03-21T01:58:34.796Z,65.25
2019-03-21T02:01:39.236Z,66.33
2019-03-21T02:04:43.659Z,66.74
2019-03-21T02:07:48.393Z,67.32
2019-03-21T02:10:53.117Z,67.37
2019-03-21T02:13:57.563Z,66.35
2019-03-21T02:17:01.997Z,66.53
2019-03-21T02:20:19.185Z,66.46
2019-03-21T02:23:24.440Z,65.08
2019-03-21T02:26:28.874Z,65.63
2019-03-21T02:29:33.587Z,64.63
2019-03-21T02:32:38.031Z,65.29
2019-03-21T02:35:42.465Z,66.05
2019-03-21T02:38:47.169Z,65.32
2019-03-21T02:41:51.901Z,66.11
2019-03-21T02:45:07.839Z,66.21
2019-03-21T02:48:03.039Z,66.20
2019-03-21T02:51:08.801Z,65.92
2019-03-21T02:54:13.293Z,65.79
2019-03-21T02:57:18.008Z,66.12
2019-03-21T03:00:32.670Z,66.80
2019-03-21T03:03:37.108Z,67.07
2019-03-21T03:06:41.547Z,67.36
2019-03-21T03:09:46.250Z,66.55
2019-03-21T03:12:50.689Z,66.06
2019-03-21T03:15:55.122Z,66.47
2019-03-21T03:18:59.562Z,66.58
2019-03-21T03:22:04.254Z,67.24
2019-03-21T03:25:13.192Z,68.00
2019-03-21T03:28:28.567Z,67.47
2019-03-21T03:31:33.297Z,68.10
2019-03-21T03:34:38.047Z,66.84
2019-03-21T03:37:44.617Z,66.59
2019-03-21T03:41:09.092Z,65.82
2019-03-21T03:44:13.819Z,66.12
2019-03-21T03:47:18.547Z,67.26
2019-03-21T03:50:22.983Z,67.29
2019-03-21T03:53:27.704Z,67.53
2019-03-21T03:56:32.549Z,67.19
2019-03-21T03:59:37.366Z,67.90
2019-03-21T04:02:42.107Z,66.68
2019-03-21T04:05:47.142Z,66.31
2019-03-21T04:08:54.542Z,67.16
2019-03-21T04:11:58.980Z,65.92
2019-03-21T04:15:04.094Z,66.72
2019-03-21T04:18:08.531Z,66.07
2019-03-21T04:21:17.399Z,67.23
2019-03-21T04:24:22.201Z,67.54
2019-03-21T04:27:26.908Z,66.24
2019-03-21T04:30:31.638Z,67.25
2019-03-21T04:33:36.078Z,67.97
2019-03-21T04:36:40.528Z,67.62
2019-03-21T04:39:45.220Z,68.06
2019-03-21T04:42:49.951Z,67.13
2019-03-21T04:46:02.894Z,67.05
2019-03-21T04:49:00.847Z,67.44
2019-03-21T04:52:05.578Z,68.21
2019-03-21T04:55:14.293Z,66.70
2019-03-21T04:58:18.732Z,67.94
2019-03-21T05:01:23.455Z,67.57
2019-03-21T05:04:28.187Z,67.86
2019-03-21T05:07:32.921Z,67.50
2019-03-21T05:10:37.353Z,68.30
2019-03-21T05:13:42.067Z,67.98
2019-03-21T05:16:46.804Z,68.05
2019-03-21T05:19:51.230Z,68.32
2019-03-21T05:22:55.731Z,68.01
2019-03-21T05:26:00.483Z,67.99
2019-03-21T05:29:04.935Z,68.70
2019-03-21T05:32:09.361Z,67.88
2019-03-21T05:35:13.823Z,67.99
2019-03-21T05:38:20.802Z,67.17
2019-03-21T05:41:25.571Z,67.41
2019-03-21T05:44:37.643Z,66.96
2019-03-21T05:47:42.398Z,66.72
2019-03-21T05:50:46.849Z,66.35
2019-03-21T05:53:51.659Z,66.79
2019-03-21T05:56:56.492Z,67.39
2019-03-21T06:00:01.223Z,68.06
2019-03-21T06:03:09.572Z,69.34
2019-03-21T06:06:40.693Z,69.73
2019-03-21T06:09:45.417Z,69.67
2019-03-21T06:12:50.152Z,69.47
2019-03-21T06:15:54.986Z,69.31
2019-03-21T06:19:06.774Z,69.29
2019-03-21T06:22:46.327Z,69.20
2019-03-21T06:26:27.183Z,68.29
2019-03-21T06:29:31.630Z,63.99
2019-03-21T06:32:36.360Z,56.59
2019-03-21T06:35:41.090Z,51.28
2019-03-21T06:38:45.925Z,46.51
2019-03-21T06:41:50.377Z,44.51
2019-03-21T06:44:54.838Z,41.06
2019-03-21T06:47:59.269Z,39.06
2019-03-21T06:51:04.031Z,37.20
2019-03-21T06:54:08.761Z,34.81
2019-03-21T06:57:13.489Z,33.93
2019-03-21T07:00:17.943Z,33.38
2019-03-21T07:03:22.647Z,31.79
2019-03-21T07:06:27.103Z,30.57
2019-03-21T07:09:31.804Z,29.52
2019-03-21T07:12:36.258Z,28.91
2019-03-21T07:15:41.056Z,30.67
2019-03-21T07:18:45.790Z,28.65
2019-03-21T07:21:50.514Z,26.87
2019-03-21T07:24:55.251Z,27.43
2019-03-21T07:27:59.764Z,27.76
2019-03-21T07:31:04.507Z,29.65
2019-03-21T07:34:10.209Z,33.28
2019-03-21T07:37:15.103Z,36.82
2019-03-21T07:40:19.539Z,39.16
2019-03-21T07:43:23.991Z,41.16
2019-03-21T07:46:28.768Z,43.01
2019-03-21T07:49:33.213Z,43.88
2019-03-21T07:52:37.928Z,44.64
2019-03-21T07:55:42.360Z,47.79
2019-03-21T07:58:46.800Z,47.51
2019-03-21T08:01:51.601Z,49.69
2019-03-21T08:04:56.342Z,49.80
2019-03-21T08:08:01.068Z,48.59
2019-03-21T08:11:05.498Z,50.56
2019-03-21T08:14:09.927Z,48.81
2019-03-21T08:17:14.645Z,48.33
2019-03-21T08:20:19.996Z,49.07
2019-03-21T08:23:24.728Z,47.05
2019-03-21T08:26:29.449Z,47.14
2019-03-21T08:29:34.180Z,47.51
2019-03-21T08:32:38.919Z,48.25
2019-03-21T08:35:43.641Z,46.60
2019-03-21T08:38:48.379Z,46.01
2019-03-21T08:41:53.105Z,47.58
2019-03-21T08:44:57.529Z,46.15
2019-03-21T08:48:02.257Z,46.89
2019-03-21T08:51:08.687Z,44.13
2019-03-21T08:54:13.143Z,42.77
2019-03-21T08:57:17.882Z,43.20
2019-03-21T09:00:33.591Z,42.01
2019-03-21T09:03:28.775Z,43.17
2019-03-21T09:06:33.514Z,40.89
2019-03-21T09:09:38.246Z,40.50
2019-03-21T09:12:42.977Z,40.29
2019-03-21T09:15:47.707Z,41.73
2019-03-21T09:18:53.792Z,41.51
2019-03-21T09:21:58.246Z,40.16
2019-03-21T09:25:04.782Z,37.02
2019-03-21T09:28:09.495Z,36.45
2019-03-21T09:31:14.242Z,37.17
2019-03-21T09:34:18.677Z,38.44
2019-03-21T09:37:23.378Z,37.60
2019-03-21T09:40:27.820Z,38.47
2019-03-21T09:43:32.534Z,36.08
2019-03-21T09:46:37.009Z,37.72
2019-03-21T09:49:41.791Z,37.73
2019-03-21T09:52:46.234Z,39.49
2019-03-21T09:55:50.943Z,38.54
2019-03-21T09:58:55.674Z,37.40
2019-03-21T10:02:00.405Z,38.32
2019-03-21T10:05:07.229Z,38.95
2019-03-21T10:08:12.018Z,36.65
2019-03-21T10:11:16.452Z,38.27
2019-03-21T10:14:20.900Z,36.31
2019-03-21T10:17:25.338Z,37.91
2019-03-21T10:20:29.787Z,37.16
2019-03-21T10:23:34.548Z,36.17
2019-03-21T10:26:38.987Z,37.19
2019-03-21T10:29:43.448Z,35.22
2019-03-21T10:32:47.888Z,36.74
2019-03-21T10:35:53.575Z,34.92
2019-03-21T10:38:58.304Z,36.23
2019-03-21T10:42:03.030Z,35.05
2019-03-21T10:45:08.889Z,34.05
2019-03-21T10:48:13.617Z,33.67
2019-03-21T10:51:18.349Z,33.44
2019-03-21T10:54:23.782Z,33.70
2019-03-21T10:57:28.732Z,31.48
2019-03-21T11:00:33.179Z,33.05
2019-03-21T11:03:37.631Z,31.15
2019-03-21T11:06:42.414Z,29.12
2019-03-21T11:09:47.140Z,29.62
2019-03-21T11:12:52.080Z,30.58
2019-03-21T11:15:56.808Z,29.78
2019-03-21T11:19:01.540Z,29.46
2019-03-21T11:22:06.848Z,31.42
2019-03-21T11:25:11.722Z,29.82
2019-03-21T11:28:17.767Z,29.56
2019-03-21T11:31:22.716Z,29.69
2019-03-21T11:34:27.452Z,31.04
2019-03-21T11:37:31.887Z,29.22
2019-03-21T11:40:36.572Z,28.84
2019-03-21T11:43:41.011Z,29.26
2019-03-21T11:46:45.763Z,30.91
2019-03-21T11:49:50.198Z,30.15
2019-03-21T11:52:55.015Z,28.72
2019-03-21T11:55:59.742Z,28.07
2019-03-21T11:59:04.175Z,29.41
2019-03-21T12:02:08.618Z,29.35
2019-03-21T12:05:13.527Z,28.58
2019-03-21T12:08:18.264Z,29.22
2019-03-21T12:11:22.988Z,28.00
2019-03-21T12:14:27.438Z,27.40
2019-03-21T12:17:31.872Z,29.36
2019-03-21T12:20:36.320Z,24.97
2019-03-21T12:23:41.093Z,27.87
2019-03-21T12:26:45.548Z,25.88
2019-03-21T12:29:49.985Z,27.43
2019-03-21T12:32:54.771Z,26.84
2019-03-21T12:35:59.508Z,28.08
2019-03-21T12:39:05.874Z,29.33
2019-03-21T12:42:10.911Z,25.57
2019-03-21T12:45:15.642Z,26.83
2019-03-21T12:48:20.080Z,26.46
2019-03-21T12:51:24.601Z,27.34
2019-03-21T12:54:29.322Z,26.66
2019-03-21T12:57:33.768Z,26.51
2019-03-21T13:00:40.319Z,25.72
2019-03-21T13:03:44.750Z,25.26
2019-03-21T13:06:49.188Z,26.30
2019-03-21T13:09:53.631Z,25.28
2019-03-21T13:12:58.425Z,25.94
2019-03-21T13:16:03.167Z,24.13
2019-03-21T13:19:07.915Z,24.47
2019-03-21T13:22:12.617Z,25.42
2019-03-21T13:25:17.066Z,26.35
2019-03-21T13:28:21.772Z,26.78
2019-03-21T13:31:26.503Z,26.10
2019-03-21T13:34:30.935Z,26.00
2019-03-21T13:37:35.379Z,22.68
2019-03-21T13:40:40.079Z,23.21
2019-03-21T13:43:44.818Z,24.07
2019-03-21T13:46:49.257Z,25.15
2019-03-21T13:49:53.695Z,23.65
2019-03-21T13:53:04.800Z,23.87
2019-03-21T13:56:04.557Z,23.76
2019-03-21T13:59:08.984Z,23.87
2019-03-21T14:02:13.698Z,23.48
2019-03-21T14:05:18.475Z,23.44
2019-03-21T14:08:22.990Z,23.27
2019-03-21T14:11:27.798Z,22.22
2019-03-21T14:14:32.528Z,22.48
2019-03-21T14:17:36.968Z,21.78
2019-03-21T14:20:41.679Z,23.81
2019-03-21T14:23:46.120Z,23.74
2019-03-21T14:26:50.831Z,23.21
2019-03-21T14:30:01.135Z,24.27
2019-03-21T14:33:01.436Z,24.35
2019-03-21T14:36:05.944Z,23.41
2019-03-21T14:39:10.675Z,24.32
2019-03-21T14:42:15.410Z,24.44
2019-03-21T14:45:20.136Z,23.39
2019-03-21T14:48:24.871Z,24.12
2019-03-21T14:51:29.309Z,24.28
2019-03-21T14:54:34.033Z,23.37
2019-03-21T14:57:38.859Z,23.99
2019-03-21T15:00:43.586Z,25.94
2019-03-21T15:03:48.323Z,25.16
2019-03-21T15:06:52.767Z,24.13
2019-03-21T15:09:57.474Z,23.50
2019-03-21T15:13:01.925Z,25.13
2019-03-21T15:16:06.631Z,25.27
2019-03-21T15:19:11.362Z,25.53
2019-03-21T15:22:16.092Z,26.10
2019-03-21T15:25:20.859Z,26.16
2019-03-21T15:28:25.553Z,25.73
2019-03-21T15:31:30.284Z,26.86
2019-03-21T15:34:34.730Z,27.32
2019-03-21T15:37:39.440Z,27.84
2019-03-21T15:40:43.875Z,28.25
2019-03-21T15:43:48.320Z,28.98
2019-03-21T15:46:53.011Z,29.33
2019-03-21T15:49:57.752Z,29.40
2019-03-21T15:53:02.194Z,29.55
2019-03-21T15:56:06.901Z,28.42
2019-03-21T15:59:11.632Z,29.20
2019-03-21T16:02:16.359Z,29.40
2019-03-21T16:05:20.808Z,29.58
2019-03-21T16:08:27.188Z,29.50
2019-03-21T16:11:31.677Z,29.95
2019-03-21T16:14:36.411Z,30.06
2019-03-21T16:17:41.138Z,30.78
2019-03-21T16:20:45.867Z,31.22
2019-03-21T16:23:50.337Z,29.65
2019-03-21T16:26:54.771Z,31.62
2019-03-21T16:29:59.453Z,30.52
2019-03-21T16:33:03.893Z,31.79
2019-03-21T16:36:08.604Z,31.61
2019-03-21T16:39:13.337Z,30.33
2019-03-21T16:42:18.070Z,30.06
2019-03-21T16:45:22.800Z,29.97
2019-03-21T16:48:27.240Z,30.51
2019-03-21T16:51:31.950Z,30.47
2019-03-21T16:54:36.799Z,31.48
2019-03-21T16:57:41.514Z,31.25
2019-03-21T17:00:45.969Z,30.64
2019-03-21T17:03:50.483Z,31.15
2019-03-21T17:06:54.929Z,31.97
2019-03-21T17:09:59.634Z,32.26
2019-03-21T17:13:04.978Z,32.16
2019-03-21T17:16:10.821Z,33.46
2019-03-21T17:19:15.369Z,31.47
2019-03-21T17:22:20.075Z,32.45
2019-03-21T17:25:24.805Z,34.07
2019-03-21T17:28:29.244Z,34.70
2019-03-21T17:31:33.688Z,34.65
2019-03-21T17:34:38.138Z,35.20
2019-03-21T17:37:42.580Z,35.61
2019-03-21T17:40:47.029Z,36.78
2019-03-21T17:43:51.470Z,37.82
2019-03-21T17:46:56.183Z,38.11
2019-03-21T17:50:01.324Z,39.09
2019-03-21T17:53:06.055Z,39.75
2019-03-21T17:56:10.734Z,40.03
2019-03-21T17:59:15.624Z,40.45
2019-03-21T18:02:20.061Z,41.03
2019-03-21T18:05:24.812Z,41.14
2019-03-21T18:08:29.514Z,41.87
2019-03-21T18:11:34.341Z,41.99
2019-03-21T18:14:38.791Z,42.48
2019-03-21T18:17:43.229Z,42.90
2019-03-21T18:20:47.668Z,42.58
2019-03-21T18:23:52.449Z,43.08
2019-03-21T18:26:57.293Z,43.05
2019-03-21T18:30:02.007Z,43.56
2019-03-21T18:33:06.735Z,44.01
2019-03-21T18:36:11.183Z,43.62
2019-03-21T18:39:15.897Z,44.51
2019-03-21T18:42:20.615Z,44.92
2019-03-21T18:45:25.459Z,45.28
2019-03-21T18:48:29.889Z,45.27
2019-03-21T18:51:34.610Z,45.90
2019-03-21T18:54:39.336Z,45.95
2019-03-21T18:57:44.066Z,46.62
2019-03-21T19:00:48.512Z,47.69
2019-03-21T19:03:52.958Z,47.46
2019-03-21T19:06:57.749Z,47.90
2019-03-21T19:10:02.173Z,48.68
2019-03-21T19:13:06.901Z,48.27
2019-03-21T19:16:11.628Z,48.83
2019-03-21T19:19:16.358Z,48.75
2019-03-21T19:22:21.092Z,49.58
2019-03-21T19:25:25.541Z,50.17
2019-03-21T19:28:30.247Z,50.24
2019-03-21T19:31:34.683Z,50.39
2019-03-21T19:34:39.402Z,50.20
2019-03-21T19:37:44.132Z,50.10
2019-03-21T19:40:48.584Z,50.65
2019-03-21T19:43:53.288Z,50.62
2019-03-21T19:46:57.777Z,51.42
2019-03-21T19:50:02.212Z,51.58
2019-03-21T19:53:06.717Z,51.27
2019-03-21T19:56:11.182Z,52.80
2019-03-21T19:59:15.603Z,52.49
2019-03-21T20:02:20.037Z,52.42
2019-03-21T20:05:24.759Z,52.22
2019-03-21T20:08:29.494Z,51.88
2019-03-21T20:11:33.932Z,52.38
2019-03-21T20:14:38.358Z,53.32
2019-03-21T20:17:42.798Z,53.60
2019-03-21T20:20:47.507Z,53.40
2019-03-21T20:23:51.930Z,53.76
2019-03-21T20:26:56.654Z,53.72
2019-03-21T20:30:01.318Z,52.73
2019-03-21T20:33:06.120Z,53.83
2019-03-21T20:36:10.566Z,52.54
2019-03-21T20:39:15.283Z,54.04
2019-03-21T20:42:19.717Z,53.50
2019-03-21T20:45:24.423Z,53.35
2019-03-21T20:48:30.414Z,54.11
2019-03-21T20:51:35.116Z,55.17
2019-03-21T20:54:39.836Z,54.65
2019-03-21T20:57:44.279Z,54.36
2019-03-21T21:00:48.714Z,54.33
2019-03-21T21:03:53.414Z,54.38
2019-03-21T21:06:58.256Z,54.44
2019-03-21T21:10:02.990Z,55.00
2019-03-21T21:13:07.712Z,54.67
2019-03-21T21:16:12.452Z,55.94
2019-03-21T21:19:17.169Z,55.60
2019-03-21T21:22:21.907Z,56.61
2019-03-21T21:25:26.343Z,56.48
2019-03-21T21:28:31.060Z,56.58
2019-03-21T21:31:35.791Z,56.43
2019-03-21T21:34:40.222Z,57.55
2019-03-21T21:37:45.149Z,57.39
2019-03-21T21:40:49.582Z,57.25
2019-03-21T21:43:54.018Z,57.72
2019-03-21T21:46:58.450Z,58.42
2019-03-21T21:50:03.364Z,58.64
2019-03-21T21:53:08.084Z,58.33
2019-03-21T21:56:17.639Z,57.87
2019-03-21T21:59:18.990Z,57.46
2019-03-21T22:02:23.709Z,58.26
2019-03-21T22:05:28.135Z,58.69
2019-03-21T22:08:32.863Z,59.14
2019-03-21T22:11:37.307Z,58.37
2019-03-21T22:14:41.725Z,58.30
2019-03-21T22:17:46.238Z,58.75
2019-03-21T22:20:50.662Z,59.12
2019-03-21T22:23:55.393Z,58.51
2019-03-21T22:26:59.827Z,58.44
2019-03-21T22:30:10.392Z,58.81
2019-03-21T22:33:14.829Z,59.65
2019-03-21T22:36:19.543Z,59.16
2019-03-21T22:39:24.271Z,58.70
2019-03-21T22:42:29.539Z,58.93
2019-03-21T22:45:33.969Z,59.38
2019-03-21T22:48:38.422Z,60.73
2019-03-21T22:51:43.190Z,60.72
2019-03-21T22:54:47.924Z,60.89
2019-03-21T22:57:52.365Z,61.04
2019-03-21T23:00:56.875Z,61.27
2019-03-21T23:04:02.868Z,61.60
2019-03-21T23:07:07.531Z,61.71
2019-03-21T23:10:12.604Z,61.46
2019-03-21T23:13:17.046Z,61.21
2019-03-21T23:16:21.753Z,61.46
2019-03-21T23:19:26.481Z,61.93
2019-03-21T23:22:31.212Z,61.52
2019-03-21T23:25:35.647Z,61.84
2019-03-21T23:28:40.081Z,61.71
2019-03-21T23:31:44.508Z,61.54
2019-03-21T23:34:48.938Z,61.60
2019-03-21T23:37:53.377Z,61.93
2019-03-21T23:40:57.813Z,62.57
2019-03-21T23:44:02.253Z,62.76
2019-03-21T23:47:06.682Z,62.61
2019-03-21T23:50:16.095Z,62.30
2019-03-21T23:53:20.538Z,62.17
2019-03-21T23:56:25.301Z,62.34
2019-03-21T23:59:30.028Z,62.07
